Time;durP1;ratioP1;P1;durP2;ratioP2;P2;SDS_P1;SDS_P2;PMS_P1;PMS_P2;Temp;Humidity;BMP_temperature;BMP_pressure;BME280_temperature;BME280_humidity;BME280_pressure;Samples;Min_cycle;Max_cycle;Signal;HPM_P1;HPM_P2
2023/05/13 00:00:37;;;;;;;7.63;1.97;;;9.70;99.90;;;;;;5025352;28;20186;-71
2023/05/13 00:03:02;;;;;;;4.20;1.93;;;9.70;99.90;;;;;;5042057;28;20514;-71
2023/05/13 00:05:28;;;;;;;2.50;1.50;;;9.60;99.90;;;;;;5050462;28;20912;-71
2023/05/13 00:07:54;;;;;;;2.60;1.70;;;9.60;99.90;;;;;;5047281;28;20229;-70
2023/05/13 00:10:20;;;;;;;11.00;2.20;;;9.50;99.90;;;;;;5034757;28;20210;-71
2023/05/13 00:12:46;;;;;;;3.00;1.50;;;9.50;99.90;;;;;;5051004;28;20459;-71
2023/05/13 00:15:12;;;;;;;2.77;1.63;;;9.60;99.90;;;;;;5049457;28;20770;-70
2023/05/13 00:17:37;;;;;;;2.60;1.63;;;9.40;99.90;;;;;;5028363;28;20500;-71
2023/05/13 00:20:04;;;;;;;2.67;1.17;;;9.40;99.90;;;;;;5020556;28;20210;-71
2023/05/13 00:22:29;;;;;;;6.47;2.00;;;9.30;99.90;;;;;;5030850;28;20182;-70
2023/05/13 00:24:55;;;;;;;3.10;1.50;;;9.30;99.90;;;;;;5043859;28;20423;-71
2023/05/13 00:27:20;;;;;;;2.40;1.37;;;9.30;99.90;;;;;;5031768;28;20206;-71
2023/05/13 00:29:46;;;;;;;2.60;1.60;;;9.30;99.90;;;;;;5033004;28;20198;-70
2023/05/13 00:32:12;;;;;;;3.47;1.90;;;9.30;99.90;;;;;;5050403;28;20178;-70
2023/05/13 00:34:37;;;;;;;3.30;1.63;;;9.30;99.90;;;;;;5050474;28;20178;-71
2023/05/13 00:37:03;;;;;;;4.67;2.07;;;9.30;99.90;;;;;;5048486;28;20205;-71
2023/05/13 00:39:29;;;;;;;4.80;2.30;;;9.30;99.90;;;;;;5027683;28;20197;-71
2023/05/13 00:41:55;;;;;;;2.90;1.93;;;9.30;99.90;;;;;;5029136;28;20913;-71
2023/05/13 00:44:20;;;;;;;4.10;2.20;;;9.30;99.90;;;;;;5043703;28;20182;-71
2023/05/13 00:46:46;;;;;;;3.03;1.83;;;9.30;99.90;;;;;;5038488;28;20372;-70
2023/05/13 00:49:12;;;;;;;3.50;2.20;;;9.40;99.90;;;;;;5050086;28;20213;-71
2023/05/13 00:51:37;;;;;;;4.87;2.93;;;9.40;99.90;;;;;;5025793;28;20266;-71
2023/05/13 00:54:03;;;;;;;4.87;2.50;;;9.50;99.90;;;;;;5033347;28;20217;-71
2023/05/13 00:56:29;;;;;;;2.20;1.57;;;9.50;99.90;;;;;;5023653;28;20189;-71
2023/05/13 00:58:55;;;;;;;4.60;2.00;;;9.50;99.90;;;;;;5025333;28;20282;-71
2023/05/13 01:01:41;;;;;;;3.10;1.90;;;9.50;99.90;;;;;;5029289;28;20194;-71
2023/05/13 01:04:37;;;;;;;3.20;2.23;;;9.60;99.90;;;;;;5046702;28;20189;-71
2023/05/13 01:07:17;;;;;;;4.57;2.53;;;9.60;99.90;;;;;;5022164;28;20479;-71
2023/05/13 01:10:04;;;;;;;13.23;2.33;;;9.70;99.90;;;;;;5028487;28;20421;-71
2023/05/13 01:12:34;;;;;;;4.83;2.00;;;9.70;99.90;;;;;;5050274;28;20436;-71
2023/05/13 01:15:20;;;;;;;3.03;2.00;;;9.80;99.90;;;;;;5051829;28;20439;-71
2023/05/13 01:18:10;;;;;;;5.60;2.77;;;9.80;99.90;;;;;;5028197;28;20490;-71
2023/05/13 01:20:40;;;;;;;4.13;2.37;;;9.80;99.90;;;;;;5039442;28;20454;-71
2023/05/13 01:23:05;;;;;;;4.43;2.83;;;9.80;99.90;;;;;;5053384;28;20474;-71
2023/05/13 01:25:31;;;;;;;2.67;1.97;;;9.80;99.90;;;;;;5053915;28;20412;-71
2023/05/13 01:27:57;;;;;;;3.40;2.40;;;9.80;99.90;;;;;;5038086;28;20212;-71
2023/05/13 01:30:23;;;;;;;5.30;2.50;;;9.80;99.90;;;;;;5046405;28;20182;-71
2023/05/13 01:32:50;;;;;;;3.10;1.80;;;9.80;99.90;;;;;;5053324;28;20412;-71
2023/05/13 01:35:16;;;;;;;2.80;2.00;;;9.80;99.90;;;;;;5047260;28;20182;-71
2023/05/13 01:37:42;;;;;;;3.10;2.20;;;9.80;99.90;;;;;;5043271;28;20524;-71
2023/05/13 01:40:09;;;;;;;5.37;2.83;;;9.80;99.90;;;;;;5040693;28;20988;-71
2023/05/13 01:42:35;;;;;;;7.07;2.63;;;9.80;99.90;;;;;;5045985;28;20185;-71
2023/05/13 01:45:02;;;;;;;4.33;2.10;;;9.80;99.90;;;;;;5047264;28;20512;-71
2023/05/13 01:47:27;;;;;;;3.27;2.07;;;9.80;99.90;;;;;;5046887;28;20220;-71
2023/05/13 01:49:53;;;;;;;2.87;2.03;;;9.80;99.90;;;;;;5049572;28;20783;-71
2023/05/13 01:52:18;;;;;;;2.30;1.67;;;9.80;99.90;;;;;;5030282;28;20185;-71
2023/05/13 01:54:44;;;;;;;4.70;2.90;;;9.80;99.90;;;;;;5044891;28;20532;-71
2023/05/13 01:57:10;;;;;;;4.07;2.73;;;9.80;99.90;;;;;;5053544;28;20263;-71
2023/05/13 01:59:35;;;;;;;2.90;1.93;;;9.80;99.90;;;;;;5030039;28;20182;-71
2023/05/13 02:02:02;;;;;;;7.63;2.50;;;9.80;99.90;;;;;;5033633;28;20185;-71
2023/05/13 02:04:28;;;;;;;2.40;1.77;;;9.80;99.90;;;;;;5052379;28;20252;-71
2023/05/13 02:06:54;;;;;;;3.00;1.93;;;9.90;99.90;;;;;;5053244;28;20452;-71
2023/05/13 02:09:19;;;;;;;3.00;1.47;;;9.90;99.90;;;;;;5053000;28;20205;-71
2023/05/13 02:11:45;;;;;;;4.37;2.30;;;9.90;99.90;;;;;;5052092;28;20268;-71
2023/05/13 02:14:11;;;;;;;2.73;2.33;;;9.90;99.90;;;;;;5035495;28;20739;-71
2023/05/13 02:16:37;;;;;;;3.33;2.00;;;9.90;99.90;;;;;;5033074;28;20520;-71
2023/05/13 02:19:03;;;;;;;2.87;1.53;;;9.80;99.90;;;;;;5035348;28;20192;-71
2023/05/13 02:21:28;;;;;;;6.60;2.50;;;9.80;99.90;;;;;;5045377;28;20186;-71
2023/05/13 02:23:54;;;;;;;3.00;1.80;;;9.80;99.90;;;;;;5047729;28;20233;-71
2023/05/13 02:26:21;;;;;;;8.67;1.63;;;9.80;99.90;;;;;;5034695;28;20182;-71
2023/05/13 02:28:46;;;;;;;3.33;2.30;;;9.70;99.90;;;;;;5051955;28;20952;-71
2023/05/13 02:31:12;;;;;;;2.90;2.00;;;9.80;99.90;;;;;;5046036;28;20446;-71
2023/05/13 02:33:38;;;;;;;3.63;1.93;;;9.70;99.90;;;;;;5034517;28;20266;-71
2023/05/13 02:36:04;;;;;;;3.00;2.07;;;9.70;99.90;;;;;;5033352;28;20859;-71
2023/05/13 02:38:30;;;;;;;5.13;1.90;;;9.70;99.90;;;;;;5045889;28;20186;-71
2023/05/13 02:40:55;;;;;;;2.90;1.50;;;9.70;99.90;;;;;;5044640;28;20228;-70
2023/05/13 02:43:22;;;;;;;5.13;2.30;;;9.70;99.90;;;;;;5040639;28;20186;-71
2023/05/13 02:45:48;;;;;;;3.53;1.60;;;9.70;99.90;;;;;;5044215;28;20174;-71
2023/05/13 02:48:13;;;;;;;3.23;1.70;;;9.70;99.90;;;;;;5052282;28;20521;-71
2023/05/13 02:50:39;;;;;;;3.20;2.03;;;9.70;99.90;;;;;;5041265;28;20220;-71
2023/05/13 02:53:05;;;;;;;3.37;2.00;;;9.60;99.90;;;;;;5039567;28;20256;-71
2023/05/13 02:55:31;;;;;;;3.73;2.40;;;9.60;99.90;;;;;;5051805;28;20967;-71
2023/05/13 02:57:57;;;;;;;3.80;2.33;;;9.70;99.90;;;;;;5046493;28;20416;-71
2023/05/13 03:00:22;;;;;;;4.67;2.53;;;9.70;99.90;;;;;;5024503;28;20601;-71
2023/05/13 03:02:48;;;;;;;3.30;1.80;;;9.70;99.90;;;;;;5041492;28;20185;-71
2023/05/13 03:05:14;;;;;;;3.80;1.83;;;9.80;99.90;;;;;;5029774;28;20191;-71
2023/05/13 03:07:39;;;;;;;2.13;1.70;;;9.80;99.90;;;;;;5042667;28;20209;-71
2023/05/13 03:10:06;;;;;;;3.40;2.30;;;9.80;99.90;;;;;;5039634;28;20182;-71
2023/05/13 03:12:31;;;;;;;4.93;1.90;;;9.80;99.90;;;;;;5050330;28;20178;-71
2023/05/13 03:14:57;;;;;;;5.13;2.07;;;9.80;99.90;;;;;;5042625;28;20440;-71
2023/05/13 03:17:24;;;;;;;3.67;2.33;;;9.80;99.90;;;;;;5028811;28;20213;-71
2023/05/13 03:19:49;;;;;;;7.37;2.60;;;9.70;99.90;;;;;;5037379;28;20429;-71
2023/05/13 03:22:15;;;;;;;3.30;2.10;;;9.70;99.90;;;;;;5050373;28;20416;-71
2023/05/13 03:24:42;;;;;;;2.53;1.83;;;9.60;99.90;;;;;;5051500;28;20185;-71
2023/05/13 03:27:07;;;;;;;4.67;1.60;;;9.70;99.90;;;;;;5045475;28;20178;-71
2023/05/13 03:29:33;;;;;;;7.17;3.00;;;9.70;99.90;;;;;;5037908;28;20417;-71
2023/05/13 03:31:59;;;;;;;4.83;2.33;;;9.80;99.90;;;;;;5049847;28;20174;-71
2023/05/13 03:34:24;;;;;;;2.63;1.63;;;9.70;99.90;;;;;;5050677;28;20192;-71
2023/05/13 03:36:50;;;;;;;4.30;1.73;;;9.70;99.90;;;;;;5046894;28;20175;-71
2023/05/13 03:39:16;;;;;;;6.77;2.80;;;9.70;99.90;;;;;;5032305;28;20631;-71
2023/05/13 03:41:41;;;;;;;3.33;2.10;;;9.80;99.90;;;;;;5040059;28;20178;-71
2023/05/13 03:44:07;;;;;;;3.60;1.67;;;9.70;99.90;;;;;;5051319;28;20257;-70
2023/05/13 03:46:32;;;;;;;2.87;1.87;;;9.70;99.90;;;;;;5051351;28;20205;-70
2023/05/13 03:48:58;;;;;;;2.83;1.73;;;9.70;99.90;;;;;;5050877;28;20205;-71
2023/05/13 03:51:24;;;;;;;2.80;1.90;;;9.60;99.90;;;;;;5042157;28;20228;-71
2023/05/13 03:53:50;;;;;;;3.03;1.70;;;9.70;99.90;;;;;;5032332;28;20818;-71
2023/05/13 03:56:15;;;;;;;3.47;2.07;;;9.70;99.90;;;;;;5049564;28;20608;-71
2023/05/13 03:58:41;;;;;;;6.03;1.70;;;9.70;99.90;;;;;;5036300;28;20179;-71
2023/05/13 04:01:07;;;;;;;4.80;2.57;;;9.60;99.90;;;;;;5045014;28;20185;-71
2023/05/13 04:03:33;;;;;;;2.33;1.50;;;9.60;99.90;;;;;;5039745;28;20182;-71
2023/05/13 04:05:59;;;;;;;3.37;1.90;;;9.60;99.90;;;;;;5037939;28;20178;-71
2023/05/13 04:08:25;;;;;;;2.03;1.63;;;9.60;99.90;;;;;;5051263;28;20963;-71
2023/05/13 04:10:51;;;;;;;4.40;2.60;;;9.60;99.90;;;;;;5046198;28;20425;-71
2023/05/13 04:13:17;;;;;;;3.03;1.70;;;9.70;99.90;;;;;;5042669;28;20223;-71
2023/05/13 04:15:42;;;;;;;3.60;1.70;;;9.70;99.90;;;;;;5037029;28;20177;-71
2023/05/13 04:18:08;;;;;;;2.90;1.90;;;9.70;99.90;;;;;;5028363;28;20186;-71
2023/05/13 04:20:36;;;;;;;4.27;2.10;;;9.60;99.90;;;;;;5041899;28;20234;-71
2023/05/13 04:23:02;;;;;;;2.63;1.47;;;9.60;99.90;;;;;;5050620;28;20185;-71
2023/05/13 04:25:28;;;;;;;3.10;1.37;;;9.60;99.90;;;;;;5050835;28;20507;-71
2023/05/13 04:27:54;;;;;;;2.50;1.60;;;9.70;99.90;;;;;;5038073;28;20534;-71
2023/05/13 04:30:19;;;;;;;1.97;1.33;;;9.70;99.90;;;;;;5043263;28;20178;-71
2023/05/13 04:32:45;;;;;;;4.27;2.20;;;9.70;99.90;;;;;;5050655;28;20232;-71
2023/05/13 04:35:11;;;;;;;2.97;1.33;;;9.70;99.90;;;;;;5037418;28;20236;-71
2023/05/13 04:37:36;;;;;;;2.20;1.37;;;9.70;99.90;;;;;;5050690;28;20228;-71
2023/05/13 04:40:02;;;;;;;2.73;1.47;;;9.70;99.90;;;;;;5037966;28;20220;-71
2023/05/13 04:42:28;;;;;;;2.07;1.30;;;9.70;99.90;;;;;;5041923;28;20228;-71
2023/05/13 04:44:53;;;;;;;2.73;1.67;;;9.70;99.90;;;;;;5050477;28;20209;-71
2023/05/13 04:47:19;;;;;;;3.60;1.27;;;9.60;99.90;;;;;;5053669;28;20570;-71
2023/05/13 04:49:45;;;;;;;2.20;1.37;;;9.60;99.90;;;;;;5053571;28;20610;-71
2023/05/13 04:52:12;;;;;;;3.80;1.40;;;9.70;99.90;;;;;;5034077;28;20270;-71
2023/05/13 04:54:38;;;;;;;1.80;1.10;;;9.70;99.90;;;;;;5043605;28;20193;-71
2023/05/13 04:57:04;;;;;;;2.83;1.73;;;9.60;99.90;;;;;;5055054;28;20428;-71
2023/05/13 04:59:30;;;;;;;2.27;1.43;;;9.80;99.90;;;;;;5035551;28;20439;-71
2023/05/13 05:01:56;;;;;;;2.80;2.00;;;9.70;99.90;;;;;;5048052;28;20416;-71
2023/05/13 05:04:21;;;;;;;2.20;1.37;;;9.70;99.90;;;;;;5041921;28;20241;-71
2023/05/13 05:06:47;;;;;;;3.50;1.77;;;9.70;99.90;;;;;;5045544;28;20201;-71
2023/05/13 05:09:13;;;;;;;5.67;1.77;;;9.70;99.90;;;;;;5053761;28;20289;-71
2023/05/13 05:11:38;;;;;;;2.80;1.53;;;9.70;99.90;;;;;;5054026;28;20189;-71
2023/05/13 05:14:04;;;;;;;2.87;1.40;;;9.80;99.90;;;;;;5053867;28;20507;-71
2023/05/13 05:16:30;;;;;;;2.33;1.23;;;9.70;99.90;;;;;;5033041;28;20189;-71
2023/05/13 05:18:55;;;;;;;4.23;1.53;;;9.80;99.90;;;;;;5028349;28;20738;-71
2023/05/13 05:21:22;;;;;;;2.47;1.53;;;9.80;99.90;;;;;;5033322;28;20189;-71
2023/05/13 05:23:48;;;;;;;2.27;1.30;;;9.80;99.90;;;;;;5032370;28;20627;-70
2023/05/13 05:26:13;;;;;;;2.73;1.83;;;9.80;99.90;;;;;;5021771;28;20445;-70
2023/05/13 05:28:41;;;;;;;4.30;1.40;;;9.80;99.90;;;;;;5026940;28;20288;-70
2023/05/13 05:31:08;;;;;;;4.17;1.77;;;9.80;99.90;;;;;;5029361;28;20194;-70
2023/05/13 05:33:34;;;;;;;4.80;1.77;;;9.80;99.90;;;;;;5028472;28;20872;-70
2023/05/13 05:36:00;;;;;;;2.37;1.27;;;9.80;99.90;;;;;;5033800;28;20781;-70
2023/05/13 05:38:26;;;;;;;2.57;1.50;;;9.90;99.90;;;;;;5033994;28;20429;-70
2023/05/13 05:40:52;;;;;;;2.67;1.40;;;9.80;99.90;;;;;;5037651;28;20549;-71
2023/05/13 05:43:17;;;;;;;3.17;1.30;;;9.80;99.90;;;;;;5038741;28;20190;-71
2023/05/13 05:45:43;;;;;;;2.17;1.47;;;9.80;99.90;;;;;;5041566;28;20186;-70
2023/05/13 05:48:09;;;;;;;2.40;1.10;;;9.80;99.90;;;;;;5033634;28;20301;-70
2023/05/13 05:50:35;;;;;;;2.70;1.70;;;9.80;99.90;;;;;;5031587;28;20189;-71
2023/05/13 05:53:01;;;;;;;6.07;2.20;;;9.80;99.90;;;;;;5032279;28;20293;-70
2023/05/13 05:55:27;;;;;;;5.90;1.53;;;9.90;99.90;;;;;;5030321;28;20419;-70
2023/05/13 05:57:55;;;;;;;3.70;1.80;;;9.90;99.90;;;;;;5048913;28;20428;-71
2023/05/13 06:00:20;;;;;;;2.37;1.37;;;9.90;99.90;;;;;;5014594;28;20425;-70
2023/05/13 06:02:47;;;;;;;2.30;1.63;;;9.90;99.90;;;;;;5030242;28;20433;-70
2023/05/13 06:05:13;;;;;;;5.57;1.37;;;10.00;99.90;;;;;;5034524;28;20190;-70
2023/05/13 06:07:39;;;;;;;2.67;1.30;;;10.00;99.90;;;;;;5039044;28;20467;-70
2023/05/13 06:10:05;;;;;;;3.80;1.80;;;10.00;99.90;;;;;;5052789;28;20186;-70
2023/05/13 06:12:31;;;;;;;2.03;1.23;;;10.00;99.90;;;;;;5033317;28;20666;-70
2023/05/13 06:14:57;;;;;;;4.30;2.00;;;10.00;99.90;;;;;;5031439;28;20437;-70
2023/05/13 06:17:23;;;;;;;2.97;1.67;;;10.00;99.90;;;;;;5029869;28;20521;-70
2023/05/13 06:19:49;;;;;;;1.70;1.20;;;10.10;99.90;;;;;;5032915;28;20673;-70
2023/05/13 06:22:14;;;;;;;4.07;1.40;;;10.00;99.90;;;;;;5032588;28;20425;-70
2023/05/13 06:24:43;;;;;;;2.00;1.20;;;10.00;99.90;;;;;;5032075;28;20178;-70
2023/05/13 06:27:10;;;;;;;3.10;1.20;;;10.00;99.90;;;;;;5033054;28;20269;-70
2023/05/13 06:29:35;;;;;;;3.10;1.13;;;10.10;99.90;;;;;;5034395;28;20477;-70
2023/05/13 06:32:01;;;;;;;2.63;1.10;;;10.10;99.90;;;;;;5032281;28;20762;-70
2023/05/13 06:34:27;;;;;;;1.67;0.97;;;10.20;99.90;;;;;;5045395;28;20641;-70
2023/05/13 06:36:52;;;;;;;3.00;1.53;;;10.20;99.90;;;;;;5044924;28;20190;-70
2023/05/13 06:39:18;;;;;;;2.27;1.23;;;10.30;99.90;;;;;;5030388;28;20182;-70
2023/05/13 06:41:44;;;;;;;3.57;1.53;;;10.30;99.90;;;;;;5032248;28;20210;-70
2023/05/13 06:44:09;;;;;;;2.70;1.77;;;10.40;99.90;;;;;;5032878;28;20194;-70
2023/05/13 06:46:35;;;;;;;3.07;1.87;;;10.40;99.90;;;;;;5045612;28;20202;-70
2023/05/13 06:49:01;;;;;;;1.77;0.97;;;10.50;99.90;;;;;;5027176;28;20220;-70
2023/05/13 06:51:27;;;;;;;1.93;1.27;;;10.50;99.90;;;;;;5039917;28;20178;-70
2023/05/13 06:53:53;;;;;;;2.00;1.30;;;10.60;99.90;;;;;;5045304;28;20177;-70
2023/05/13 06:56:21;;;;;;;3.07;2.10;;;10.60;99.90;;;;;;5028886;28;21007;-70
2023/05/13 06:58:50;;;;;;;3.97;2.37;;;10.70;99.90;;;;;;5024492;28;20911;-71
2023/05/13 07:01:16;;;;;;;4.10;1.87;;;10.70;99.90;;;;;;5032536;28;20487;-70
2023/05/13 07:03:42;;;;;;;2.20;1.30;;;10.70;99.90;;;;;;5031713;28;20421;-70
2023/05/13 07:06:08;;;;;;;2.17;1.37;;;10.80;99.90;;;;;;5031841;28;20194;-70
2023/05/13 07:08:34;;;;;;;2.40;1.50;;;10.70;99.90;;;;;;5031572;28;20504;-70
2023/05/13 07:10:59;;;;;;;2.40;1.50;;;10.70;99.90;;;;;;5015005;28;20179;-71
2023/05/13 07:13:25;;;;;;;2.43;1.40;;;10.70;99.90;;;;;;5032535;28;20266;-70
2023/05/13 07:15:51;;;;;;;3.00;1.47;;;10.80;99.90;;;;;;5031308;28;20303;-69
2023/05/13 07:18:17;;;;;;;2.90;1.70;;;10.90;99.90;;;;;;5029276;28;20952;-70
2023/05/13 07:20:42;;;;;;;3.30;1.40;;;10.90;99.90;;;;;;5031424;28;20316;-70
2023/05/13 07:23:08;;;;;;;3.37;1.83;;;10.90;99.90;;;;;;5026461;28;20190;-70
2023/05/13 07:25:34;;;;;;;12.03;1.57;;;11.00;99.90;;;;;;5024240;28;20237;-70
2023/05/13 07:27:59;;;;;;;2.77;1.53;;;11.10;99.90;;;;;;5022657;28;20210;-70
2023/05/13 07:30:25;;;;;;;3.07;1.60;;;11.10;99.90;;;;;;5025161;28;20178;-70
2023/05/13 07:32:50;;;;;;;2.77;1.53;;;11.10;99.90;;;;;;5028819;28;20190;-70
2023/05/13 07:35:16;;;;;;;4.37;1.90;;;11.20;99.90;;;;;;5030661;28;20522;-70
2023/05/13 07:37:45;;;;;;;6.20;2.00;;;11.30;99.90;;;;;;5031122;28;20196;-69
2023/05/13 07:40:12;;;;;;;4.50;1.63;;;11.40;99.90;;;;;;5029408;28;20190;-69
2023/05/13 07:42:38;;;;;;;13.20;2.30;;;11.40;99.90;;;;;;5030481;28;20425;-69
2023/05/13 07:45:05;;;;;;;3.50;1.60;;;11.50;99.90;;;;;;5018297;28;20436;-70
2023/05/13 07:47:32;;;;;;;12.00;2.33;;;11.70;99.90;;;;;;5020100;28;20458;-69
2023/05/13 07:49:58;;;;;;;4.53;1.90;;;11.90;99.90;;;;;;5030228;28;20476;-69
2023/05/13 07:52:24;;;;;;;3.57;2.30;;;12.00;99.90;;;;;;5029843;28;20428;-67
2023/05/13 07:54:49;;;;;;;4.27;2.13;;;12.10;99.90;;;;;;5037783;28;20752;-69
2023/05/13 07:57:15;;;;;;;4.20;2.03;;;12.00;99.90;;;;;;5012033;28;20643;-69
2023/05/13 07:59:41;;;;;;;3.33;1.87;;;11.90;99.90;;;;;;5022229;28;20210;-69
2023/05/13 08:02:07;;;;;;;3.77;1.93;;;12.10;99.90;;;;;;5024019;28;20709;-69
2023/05/13 08:04:33;;;;;;;5.03;1.90;;;12.20;99.90;;;;;;5032775;28;20178;-70
2023/05/13 08:07:00;;;;;;;3.90;1.90;;;12.20;99.90;;;;;;5031775;28;20746;-73
2023/05/13 08:09:26;;;;;;;3.20;1.73;;;12.30;99.90;;;;;;5029052;28;20296;-70
2023/05/13 08:11:53;;;;;;;4.40;2.10;;;12.30;99.90;;;;;;5030719;28;20792;-70
2023/05/13 08:14:19;;;;;;;5.57;2.17;;;12.40;99.90;;;;;;5044685;28;20201;-70
2023/05/13 08:16:44;;;;;;;6.43;2.03;;;12.40;99.90;;;;;;5029579;28;20441;-70
2023/05/13 08:19:10;;;;;;;4.47;2.10;;;12.60;99.90;;;;;;5025013;28;20448;-70
2023/05/13 08:21:36;;;;;;;6.83;1.80;;;12.70;99.90;;;;;;5025878;28;20284;-71
2023/05/13 08:24:01;;;;;;;2.10;1.43;;;12.80;99.90;;;;;;5024852;28;20201;-70
2023/05/13 08:26:27;;;;;;;5.40;2.47;;;12.80;99.90;;;;;;5035564;28;20596;-70
2023/05/13 08:28:53;;;;;;;3.40;1.80;;;12.80;99.90;;;;;;5028145;28;20209;-70
2023/05/13 08:31:19;;;;;;;2.70;1.53;;;12.70;99.90;;;;;;5025490;28;20182;-70
2023/05/13 08:33:46;;;;;;;3.07;1.63;;;12.80;99.90;;;;;;5038270;28;20210;-70
2023/05/13 08:36:13;;;;;;;3.40;2.30;;;12.80;99.90;;;;;;5034347;28;20178;-70
2023/05/13 08:38:39;;;;;;;3.17;2.07;;;12.90;99.90;;;;;;5034788;28;20882;-70
2023/05/13 08:41:07;;;;;;;2.80;1.40;;;12.90;99.90;;;;;;5034990;28;20431;-70
2023/05/13 08:43:33;;;;;;;3.40;1.40;;;12.90;99.90;;;;;;5034475;28;20265;-70
2023/05/13 08:46:02;;;;;;;3.30;1.90;;;13.00;99.90;;;;;;5032661;28;20778;-70
2023/05/13 08:48:29;;;;;;;3.10;2.00;;;12.80;99.90;;;;;;5034969;28;20493;-70
2023/05/13 08:50:56;;;;;;;2.60;1.90;;;12.70;99.90;;;;;;5039003;28;20421;-70
2023/05/13 08:53:24;;;;;;;4.50;1.97;;;12.60;99.90;;;;;;5042047;28;20412;-70
2023/05/13 08:55:51;;;;;;;6.67;1.77;;;12.50;99.90;;;;;;5033611;28;20429;-70
2023/05/13 08:58:17;;;;;;;3.20;1.90;;;12.50;99.90;;;;;;5024721;28;20417;-69
2023/05/13 09:00:42;;;;;;;2.97;1.70;;;12.40;99.90;;;;;;5031461;28;20432;-75
2023/05/13 09:03:08;;;;;;;2.83;1.70;;;12.30;99.90;;;;;;5040229;28;20202;-69
2023/05/13 09:05:35;;;;;;;2.70;1.90;;;12.30;99.90;;;;;;5032447;28;20361;-69
2023/05/13 09:08:06;;;;;;;4.33;1.70;;;12.00;99.90;;;;;;5044325;28;20657;-69
2023/05/13 09:10:32;;;;;;;2.13;1.53;;;12.10;99.90;;;;;;5030882;28;20431;-69
2023/05/13 09:12:59;;;;;;;3.83;2.40;;;12.10;99.90;;;;;;5028551;28;20433;-70
2023/05/13 09:15:26;;;;;;;4.20;2.57;;;12.10;99.90;;;;;;5032876;28;20171;-70
2023/05/13 09:18:00;;;;;;;3.80;2.30;;;12.20;99.90;;;;;;5033766;28;20417;-70
2023/05/13 09:20:26;;;;;;;2.00;0.97;;;12.30;99.90;;;;;;5023907;28;20441;-75
2023/05/13 09:22:56;;;;;;;3.70;2.13;;;12.10;99.90;;;;;;5026638;28;20528;-69
2023/05/13 09:25:25;;;;;;;3.83;2.23;;;12.00;99.90;;;;;;5040597;28;20432;-69
2023/05/13 09:27:58;;;;;;;2.70;1.67;;;12.00;99.90;;;;;;5033512;28;20954;-69
2023/05/13 09:30:29;;;;;;;3.00;1.70;;;11.90;99.90;;;;;;5029773;28;20466;-69
2023/05/13 09:33:15;;;;;;;2.57;1.50;;;11.80;99.90;;;;;;5035115;28;20492;-69
2023/05/13 09:35:42;;;;;;;3.40;1.90;;;11.80;99.90;;;;;;5026992;28;21139;-69
2023/05/13 09:38:16;;;;;;;5.43;2.50;;;11.80;99.90;;;;;;5028027;28;20437;-69
2023/05/13 09:40:56;;;;;;;5.37;2.07;;;11.80;99.90;;;;;;5044427;28;20415;-69
2023/05/13 09:43:23;;;;;;;3.23;1.87;;;11.70;99.90;;;;;;5018165;28;20432;-69
2023/05/13 09:46:00;;;;;;;3.90;2.13;;;11.70;99.90;;;;;;5033334;28;20885;-69
2023/05/13 09:48:28;;;;;;;3.60;1.70;;;11.70;99.90;;;;;;5043906;28;20750;-70
2023/05/13 09:50:56;;;;;;;2.73;1.53;;;11.70;99.90;;;;;;5024585;28;20425;-69
2023/05/13 09:53:22;;;;;;;4.40;2.03;;;11.70;99.90;;;;;;5030593;28;20444;-69
2023/05/13 09:55:50;;;;;;;4.20;1.80;;;11.80;99.90;;;;;;5038112;28;20405;-69
2023/05/13 09:58:17;;;;;;;2.50;1.60;;;11.70;99.90;;;;;;5032547;28;20445;-69
2023/05/13 10:00:43;;;;;;;5.80;2.63;;;11.80;99.90;;;;;;5032964;28;20499;-69
2023/05/13 10:03:10;;;;;;;3.53;1.90;;;11.80;99.90;;;;;;5031787;28;20537;-69
2023/05/13 10:05:37;;;;;;;4.20;2.03;;;11.90;99.90;;;;;;5035719;28;20189;-69
2023/05/13 10:08:07;;;;;;;3.83;1.37;;;12.00;99.90;;;;;;5031971;28;20975;-69
2023/05/13 10:10:34;;;;;;;5.00;1.60;;;12.00;99.90;;;;;;5033078;28;20414;-69
2023/05/13 10:13:12;;;;;;;2.30;1.33;;;11.90;99.90;;;;;;5032867;28;20428;-69
2023/05/13 10:15:48;;;;;;;4.17;1.87;;;12.00;99.90;;;;;;5031201;28;20528;-69
2023/05/13 10:18:16;;;;;;;3.40;1.50;;;12.10;99.90;;;;;;5027867;28;20428;-69
2023/05/13 10:20:42;;;;;;;4.40;2.03;;;12.20;99.90;;;;;;5032772;28;20425;-69
2023/05/13 10:23:08;;;;;;;5.03;2.30;;;12.40;99.90;;;;;;5046059;28;20546;-69
2023/05/13 10:25:34;;;;;;;2.30;1.40;;;12.50;99.90;;;;;;5030383;28;20520;-70
2023/05/13 10:28:02;;;;;;;3.20;1.63;;;12.60;99.90;;;;;;5028221;28;20548;-69
2023/05/13 10:30:30;;;;;;;2.37;1.17;;;12.50;99.90;;;;;;5025728;28;20487;-69
2023/05/13 10:33:00;;;;;;;5.70;1.60;;;12.50;99.90;;;;;;5038727;28;20409;-69
2023/05/13 10:35:30;;;;;;;3.00;1.93;;;12.50;99.90;;;;;;5025492;28;20435;-69
2023/05/13 10:38:03;;;;;;;5.17;1.63;;;12.50;99.90;;;;;;5040882;28;20413;-69
2023/05/13 10:40:57;;;;;;;2.20;1.60;;;12.40;99.90;;;;;;5043817;28;20417;-69
2023/05/13 10:43:27;;;;;;;3.00;1.10;;;12.50;99.90;;;;;;5031475;28;20866;-69
2023/05/13 10:46:01;;;;;;;3.10;1.60;;;12.40;99.90;;;;;;5032595;28;20425;-69
2023/05/13 10:48:40;;;;;;;3.10;1.20;;;12.30;99.90;;;;;;5030160;28;20457;-69
2023/05/13 10:51:08;;;;;;;2.80;1.73;;;12.30;99.90;;;;;;5033298;28;20524;-69
2023/05/13 10:53:47;;;;;;;4.90;1.73;;;12.30;99.90;;;;;;5027446;28;20417;-69
2023/05/13 10:56:13;;;;;;;2.73;1.80;;;12.30;99.90;;;;;;5032315;28;20417;-69
2023/05/13 10:58:39;;;;;;;3.57;1.97;;;12.50;99.90;;;;;;5028512;28;20519;-70
2023/05/13 11:01:16;;;;;;;3.60;1.87;;;12.50;99.90;;;;;;5033732;28;20521;-70
2023/05/13 11:03:51;;;;;;;2.60;1.50;;;12.40;99.90;;;;;;5037588;28;20232;-69
2023/05/13 11:06:19;;;;;;;3.20;1.50;;;12.30;99.90;;;;;;5037783;28;20737;-69
2023/05/13 11:08:50;;;;;;;4.43;1.77;;;12.40;99.90;;;;;;5036254;28;20496;-69
2023/05/13 11:11:37;;;;;;;3.10;1.40;;;12.40;99.90;;;;;;5032100;28;20516;-69
2023/05/13 11:14:21;;;;;;;2.50;1.40;;;12.20;99.90;;;;;;5027053;28;20434;-69
2023/05/13 11:17:10;;;;;;;2.63;1.60;;;12.10;99.90;;;;;;5025450;28;20475;-69
2023/05/13 11:19:46;;;;;;;4.47;2.33;;;12.10;99.90;;;;;;5023688;28;20471;-69
2023/05/13 11:22:15;;;;;;;6.40;1.63;;;12.30;99.90;;;;;;5037926;28;20416;-69
2023/05/13 11:24:44;;;;;;;3.57;2.00;;;12.20;99.90;;;;;;5036456;28;20430;-70
2023/05/13 11:27:19;;;;;;;2.47;1.80;;;12.30;99.90;;;;;;5026773;28;20464;-69
2023/05/13 11:29:51;;;;;;;1.87;1.27;;;12.20;99.90;;;;;;5028788;28;20563;-69
2023/05/13 11:32:51;;;;;;;3.30;2.00;;;12.10;99.90;;;;;;5037297;28;20436;-69
2023/05/13 11:35:27;;;;;;;4.90;1.50;;;12.10;99.90;;;;;;5028748;28;20534;-69
2023/05/13 11:37:57;;;;;;;2.50;1.20;;;12.30;99.90;;;;;;5038153;28;20458;-69
2023/05/13 11:40:36;;;;;;;3.20;1.20;;;12.30;99.90;;;;;;5037432;28;20417;-69
2023/05/13 11:43:05;;;;;;;2.03;1.17;;;12.40;99.90;;;;;;5047892;28;20503;-69
2023/05/13 11:45:31;;;;;;;3.77;1.67;;;12.30;99.90;;;;;;5048797;28;20426;-69
2023/05/13 11:47:57;;;;;;;3.13;1.60;;;12.30;99.90;;;;;;5035757;28;20813;-69
2023/05/13 11:50:28;;;;;;;3.20;1.40;;;12.40;99.90;;;;;;5037580;28;20423;-69
2023/05/13 11:52:56;;;;;;;2.50;1.37;;;12.40;99.90;;;;;;5048560;28;20196;-69
2023/05/13 11:55:26;;;;;;;2.57;1.70;;;12.30;99.90;;;;;;5051271;28;20424;-69
2023/05/13 11:57:53;;;;;;;2.23;1.63;;;12.30;99.90;;;;;;5031152;28;20518;-69
2023/05/13 12:00:27;;;;;;;3.80;1.73;;;12.30;99.90;;;;;;5032846;28;20441;-69
2023/05/13 12:02:53;;;;;;;2.40;1.80;;;12.30;99.90;;;;;;5028396;28;20479;-69
2023/05/13 12:05:18;;;;;;;3.17;1.27;;;12.30;99.90;;;;;;5029790;28;20417;-69
2023/05/13 12:07:44;;;;;;;2.00;1.43;;;12.30;99.90;;;;;;5029432;28;20834;-70
2023/05/13 12:10:10;;;;;;;3.10;1.83;;;12.30;99.90;;;;;;5042892;28;20208;-70
2023/05/13 12:12:42;;;;;;;2.90;1.50;;;12.50;99.90;;;;;;5026662;28;20206;-69
2023/05/13 12:15:13;;;;;;;2.63;1.13;;;12.50;99.90;;;;;;5033051;28;20575;-69
2023/05/13 12:17:39;;;;;;;4.50;1.90;;;12.60;99.90;;;;;;5026431;28;20425;-70
2023/05/13 12:20:09;;;;;;;1.80;1.23;;;12.60;99.90;;;;;;5042657;28;20416;-70
2023/05/13 12:22:35;;;;;;;5.13;2.37;;;12.60;99.90;;;;;;5029330;28;20170;-70
2023/05/13 12:25:30;;;;;;;3.00;1.70;;;12.60;99.90;;;;;;5028038;28;20436;-70
2023/05/13 12:27:56;;;;;;;5.03;1.77;;;12.60;99.90;;;;;;5042291;28;20804;-70
2023/05/13 12:30:22;;;;;;;3.07;1.80;;;12.70;99.90;;;;;;5037972;28;20420;-70
2023/05/13 12:32:48;;;;;;;2.60;1.83;;;12.60;99.90;;;;;;5050626;28;20466;-70
2023/05/13 12:35:13;;;;;;;4.00;1.70;;;12.70;99.90;;;;;;5030357;28;20182;-70
2023/05/13 12:37:40;;;;;;;2.80;1.83;;;12.70;99.90;;;;;;5023966;28;20918;-70
2023/05/13 12:40:13;;;;;;;2.40;1.30;;;12.80;99.90;;;;;;5036393;28;20182;-70
2023/05/13 12:42:44;;;;;;;2.40;1.43;;;12.80;99.90;;;;;;5038291;28;20433;-70
2023/05/13 12:45:10;;;;;;;3.53;1.93;;;12.80;99.90;;;;;;5034481;28;20939;-70
2023/05/13 12:47:51;;;;;;;4.73;2.13;;;12.80;99.90;;;;;;5035658;28;20777;-70
2023/05/13 12:50:18;;;;;;;2.97;1.70;;;12.70;99.90;;;;;;5039468;28;20427;-70
2023/05/13 12:52:43;;;;;;;2.60;1.63;;;12.80;99.90;;;;;;5050489;28;20512;-70